Time;durP1;ratioP1;P1;durP2;ratioP2;P2;SDS_P1;SDS_P2;PMS_P1;PMS_P2;Temp;Humidity;BMP_temperature;BMP_pressure;BME280_temperature;BME280_humidity;BME280_pressure;Samples;Min_cycle;Max_cycle;Signal;HPM_P1;HPM_P2
2021/07/28 00:02:00;;;;;;;;;16.75;15.00;;;;;18.99;85.80;100904.28;5074452;28;45283;-70
2021/07/28 00:04:25;;;;;;;;;18.00;15.50;;;;;19.08;85.58;100908.06;5071382;27;45664;-70
2021/07/28 00:06:50;;;;;;;;;15.50;15.25;;;;;19.12;85.66;100914.03;5074352;27;45546;-70
2021/07/28 00:09:16;;;;;;;;;18.25;14.00;;;;;19.16;85.83;100913.69;5076605;28;45339;-70
2021/07/28 00:11:41;;;;;;;;;19.75;15.25;;;;;19.16;85.55;100905.69;5075247;27;45484;-70
2021/07/28 00:14:06;;;;;;;;;16.25;15.00;;;;;19.21;85.37;100919.50;5075052;27;45349;-70
2021/07/28 00:16:32;;;;;;;;;16.00;16.00;;;;;19.21;85.13;100903.53;5075214;28;45534;-70
2021/07/28 00:24:09;;;;;;;;;16.50;15.25;;;;;19.21;85.06;100911.53;5077269;28;45408;-70
2021/07/28 00:26:35;;;;;;;;;14.75;13.50;;;;;19.18;85.43;100905.56;5075093;27;45546;-70
2021/07/28 00:29:00;;;;;;;;;17.75;15.00;;;;;19.19;85.52;100908.09;5071984;27;46592;-70
2021/07/28 00:31:26;;;;;;;;;15.25;13.25;;;;;19.17;85.45;100899.38;5074611;27;45433;-69
2021/07/28 00:33:51;;;;;;;;;12.50;10.00;;;;;19.18;85.39;100902.91;5075249;27;45304;-70
2021/07/28 00:36:16;;;;;;;;;12.00;9.75;;;;;19.16;85.04;100907.47;5076514;27;45427;-70
2021/07/28 00:38:41;;;;;;;;;10.50;10.50;;;;;19.17;85.44;100910.03;5075262;27;45482;-70
2021/07/28 00:41:07;;;;;;;;;11.75;11.75;;;;;19.17;85.30;100899.38;5074716;27;45449;-70
2021/07/28 00:43:34;;;;;;;;;9.75;7.25;;;;;19.16;85.12;100903.03;5074896;27;45445;-70
2021/07/28 00:46:00;;;;;;;;;12.25;11.00;;;;;19.17;85.06;100899.38;5073920;27;45480;-70
2021/07/28 00:48:26;;;;;;;;;10.75;10.25;;;;;19.13;84.76;100902.41;5076953;27;45263;-70
2021/07/28 00:50:51;;;;;;;;;13.00;9.50;;;;;19.09;85.47;100892.94;5072786;28;45291;-70
2021/07/28 00:53:19;;;;;;;;;7.50;7.25;;;;;19.02;85.00;100888.09;5074811;28;45306;-70
2021/07/28 00:55:47;;;;;;;;;8.25;8.25;;;;;18.99;84.52;100890.97;5074601;27;45405;-70
2021/07/28 00:58:12;;;;;;;;;15.25;9.25;;;;;18.94;84.67;100894.94;5074644;27;46250;-70
2021/07/28 01:00:38;;;;;;;;;10.00;9.00;;;;;18.86;84.72;100892.88;5075177;27;45504;-70
2021/07/28 01:03:03;;;;;;;;;9.50;9.50;;;;;18.84;84.69;100899.25;5075431;28;45484;-70
2021/07/28 01:05:29;;;;;;;;;9.75;8.50;;;;;18.79;84.40;100902.25;5073727;27;45564;-70
2021/07/28 01:07:54;;;;;;;;;7.50;7.25;;;;;18.74;84.62;100901.75;5074520;28;46925;-70
2021/07/28 01:10:20;;;;;;;;;7.00;7.00;;;;;18.68;84.82;100903.06;5074841;28;45331;-70
2021/07/28 01:12:51;;;;;;;;;8.00;8.00;;;;;18.64;84.85;100900.75;5074711;27;45377;-69
2021/07/28 01:18:03;;;;;;;;;9.25;7.00;;;;;18.57;84.70;100907.47;5074326;27;45398;-70
2021/07/28 01:20:42;;;;;;;;;8.75;7.75;;;;;18.56;84.63;100905.75;5073676;27;45216;-70
2021/07/28 01:23:26;;;;;;;;;8.25;7.25;;;;;18.57;84.98;100913.63;5074643;27;45408;-70
2021/07/28 01:25:54;;;;;;;;;6.00;6.00;;;;;18.61;84.94;100916.94;5072540;27;45455;-70
2021/07/28 01:28:21;;;;;;;;;9.00;7.00;;;;;18.59;84.91;100908.22;5073670;27;45622;-70
2021/07/28 01:31:04;;;;;;;;;9.25;7.25;;;;;18.66;84.55;100922.75;5073925;27;45339;-70
2021/07/28 01:33:34;;;;;;;;;8.50;7.00;;;;;18.67;84.99;100919.97;5071806;27;45449;-70
2021/07/28 01:36:01;;;;;;;;;7.50;6.50;;;;;18.70;84.46;100927.78;5073719;28;45444;-70
2021/07/28 01:38:27;;;;;;;;;6.50;6.00;;;;;18.70;84.40;100925.13;5074204;27;46419;-70
2021/07/28 01:40:55;;;;;;;;;8.50;6.00;;;;;18.72;84.30;100927.66;5073831;28;45275;-70
2021/07/28 01:43:21;;;;;;;;;6.50;6.00;;;;;18.71;84.60;100924.16;5074227;27;45495;-70
2021/07/28 01:45:47;;;;;;;;;6.50;6.50;;;;;18.73;84.15;100921.38;5074329;27;45438;-70
2021/07/28 01:48:12;;;;;;;;;6.75;5.00;;;;;18.75;83.81;100920.31;5073821;27;45450;-70
2021/07/28 01:50:38;;;;;;;;;9.25;6.75;;;;;18.74;83.79;100931.91;5073730;28;45474;-70
2021/07/28 01:53:04;;;;;;;;;6.75;6.00;;;;;18.70;83.60;100925.13;5073883;28;45335;-70
2021/07/28 01:55:30;;;;;;;;;7.75;5.75;;;;;18.64;83.52;100924.69;5073811;27;45458;-70
2021/07/28 01:57:58;;;;;;;;;9.00;5.25;;;;;18.59;83.01;100922.38;5073795;27;45662;-70
2021/07/28 02:00:24;;;;;;;;;3.50;3.50;;;;;18.55;82.84;100930.69;5075294;27;46295;-69
2021/07/28 02:02:49;;;;;;;;;6.50;6.50;;;;;18.48;82.51;100927.63;5073407;27;45380;-70
2021/07/28 02:05:14;;;;;;;;;5.75;3.50;;;;;18.43;83.29;100927.97;5072429;27;45531;-70
2021/07/28 02:07:40;;;;;;;;;5.50;4.25;;;;;18.43;83.07;100925.31;5073457;27;45368;-70
2021/07/28 02:10:06;;;;;;;;;9.25;5.00;;;;;18.37;82.81;100914.22;5072257;28;45579;-70
2021/07/28 02:12:31;;;;;;;;;5.75;4.00;;;;;18.47;83.19;100929.41;5075117;27;45494;-70
2021/07/28 02:14:57;;;;;;;;;7.25;7.00;;;;;18.47;83.23;100928.56;5072871;28;45536;-70
2021/07/28 02:17:22;;;;;;;;;4.25;4.00;;;;;18.52;83.00;100934.41;5073020;27;45484;-70
2021/07/28 02:19:48;;;;;;;;;7.25;6.00;;;;;18.56;83.19;100941.22;5073329;28;45349;-70
2021/07/28 02:22:13;;;;;;;;;7.25;7.00;;;;;18.55;82.95;100928.03;5074014;27;45385;-70
2021/07/28 02:24:40;;;;;;;;;4.25;3.50;;;;;18.55;82.44;100928.03;5074466;27;45315;-70
2021/07/28 02:27:06;;;;;;;;;4.25;4.25;;;;;18.57;82.81;100934.91;5072871;27;45575;-70
2021/07/28 02:29:33;;;;;;;;;4.00;4.00;;;;;18.54;82.85;100923.66;5073652;27;45736;-70
2021/07/28 02:31:59;;;;;;;;;7.00;6.00;;;;;18.63;83.18;100936.28;5072197;27;45689;-69
2021/07/28 02:34:24;;;;;;;;;5.50;4.50;;;;;18.60;82.09;100934.72;5073210;28;45979;-70
2021/07/28 02:36:49;;;;;;;;;5.75;5.00;;;;;18.60;81.93;100928.53;5073619;27;45502;-70
2021/07/28 02:39:15;;;;;;;;;6.50;6.00;;;;;18.55;82.13;100914.72;5075022;27;45326;-70
2021/07/28 02:41:40;;;;;;;;;6.25;6.25;;;;;18.60;82.49;100928.53;5073066;27;45382;-70
2021/07/28 02:44:06;;;;;;;;;5.75;3.75;;;;;18.56;81.87;100921.72;5071837;27;45323;-70
2021/07/28 02:46:31;;;;;;;;;4.25;4.25;;;;;18.64;81.91;100922.88;5072263;27;45621;-70
2021/07/28 02:48:56;;;;;;;;;6.50;5.25;;;;;18.64;81.45;100927.34;5073042;27;45460;-69
2021/07/28 02:51:22;;;;;;;;;6.00;4.25;;;;;18.65;81.98;100932.56;5075248;27;45681;-70
2021/07/28 02:53:47;;;;;;;;;4.75;4.75;;;;;18.58;81.43;100922.47;5073007;28;45481;-69
2021/07/28 02:56:12;;;;;;;;;3.75;3.75;;;;;18.65;81.45;100929.06;5072797;27;46389;-69
2021/07/28 02:58:38;;;;;;;;;6.75;4.00;;;;;18.64;80.57;100932.69;5073259;28;45434;-70
2021/07/28 03:01:03;;;;;;;;;4.00;4.00;;;;;18.63;81.39;100930.97;5072415;28;45429;-70
2021/07/28 03:03:28;;;;;;;;;5.50;4.25;;;;;18.58;80.58;100925.13;5074900;27;45942;-70
2021/07/28 03:05:54;;;;;;;;;3.25;3.25;;;;;18.51;81.30;100922.91;5071438;27;46263;-70
2021/07/28 03:08:19;;;;;;;;;5.00;3.00;;;;;18.57;81.42;100936.72;5072617;27;45449;-69
2021/07/28 03:10:48;;;;;;;;;3.75;3.75;;;;;18.56;80.86;100941.22;5072987;28;45375;-70
2021/07/28 03:13:13;;;;;;;;;5.00;3.75;;;;;18.56;80.37;100945.69;5073355;27;45431;-69
2021/07/28 03:15:38;;;;;;;;;6.50;5.00;;;;;18.49;80.24;100943.47;5072552;28;45497;-70
2021/07/28 03:18:04;;;;;;;;;5.00;3.00;;;;;18.44;81.18;100948.28;5074259;28;45510;-70
2021/07/28 03:20:29;;;;;;;;;7.25;4.25;;;;;18.44;81.39;100948.28;5072632;27;45487;-70
2021/07/28 03:22:55;;;;;;;;;5.75;4.75;;;;;18.46;81.19;100951.66;5071381;27;45397;-69
2021/07/28 03:25:20;;;;;;;;;4.00;4.00;;;;;18.44;81.23;100934.13;5072713;27;45605;-70
2021/07/28 03:27:46;;;;;;;;;6.50;4.25;;;;;18.41;81.09;100935.19;5072465;28;45505;-70
2021/07/28 03:30:11;;;;;;;;;5.00;5.00;;;;;18.49;80.93;100948.81;5073998;27;45493;-70
2021/07/28 03:32:37;;;;;;;;;5.00;4.25;;;;;18.51;80.89;100946.88;5070250;28;45395;-70
2021/07/28 03:35:02;;;;;;;;;3.75;3.50;;;;;18.51;80.63;100951.34;5072492;27;45436;-69
2021/07/28 03:37:28;;;;;;;;;6.50;5.00;;;;;18.51;80.49;100949.53;5072464;28;45465;-70
2021/07/28 03:40:00;;;;;;;;;6.00;3.75;;;;;18.50;80.11;100950.50;5072524;28;45446;-70
2021/07/28 03:42:28;;;;;;;;;3.00;3.00;;;;;18.51;80.25;100952.19;5070103;28;45427;-69
2021/07/28 03:44:53;;;;;;;;;5.75;4.75;;;;;18.49;79.90;100954.13;5070199;27;45502;-70
2021/07/28 03:47:18;;;;;;;;;4.00;4.00;;;;;18.49;80.26;100951.47;5071790;27;45493;-69
2021/07/28 03:49:44;;;;;;;;;3.75;2.50;;;;;18.48;79.62;100951.59;5073249;27;45350;-70
2021/07/28 03:52:09;;;;;;;;;3.00;3.00;;;;;18.47;79.63;100961.34;5075756;27;45514;-70
2021/07/28 03:54:34;;;;;;;;;2.50;2.50;;;;;18.46;79.81;100956.16;5077433;27;45613;-70
2021/07/28 03:56:59;;;;;;;;;3.00;3.00;;;;;18.46;79.66;100962.31;5076345;27;45293;-69
2021/07/28 03:59:25;;;;;;;;;4.25;4.25;;;;;18.46;79.16;100953.50;5075303;28;45297;-70
2021/07/28 04:01:50;;;;;;;;;4.00;4.00;;;;;18.45;78.85;100960.63;5073671;27;45528;-70
2021/07/28 04:04:16;;;;;;;;;6.25;3.00;;;;;18.46;78.80;100959.66;5075518;27;45548;-70
2021/07/28 04:06:42;;;;;;;;;3.25;3.25;;;;;18.44;78.37;100963.41;5076108;28;45287;-70
2021/07/28 04:09:07;;;;;;;;;3.25;3.00;;;;;18.44;78.56;100958.09;5077745;28;45503;-70
2021/07/28 04:11:32;;;;;;;;;2.50;2.50;;;;;18.45;78.57;100968.59;5075542;28;45565;-70
2021/07/28 04:13:58;;;;;;;;;6.00;2.00;;;;;18.42;78.41;100963.50;5074895;27;45344;-70
2021/07/28 04:16:23;;;;;;;;;3.00;3.00;;;;;18.40;78.36;100965.44;5075337;28;45454;-70
2021/07/28 04:18:48;;;;;;;;;3.50;2.25;;;;;18.39;78.05;100960.22;5075883;28;45433;-70
2021/07/28 04:21:14;;;;;;;;;3.00;3.00;;;;;18.39;78.13;100965.53;5077548;27;45556;-69
2021/07/28 04:23:39;;;;;;;;;4.25;3.75;;;;;18.39;78.03;100979.69;5073533;27;46411;-69
2021/07/28 04:26:04;;;;;;;;;2.75;2.75;;;;;18.38;77.89;100979.81;5075234;27;45442;-70
2021/07/28 04:28:30;;;;;;;;;3.25;3.25;;;;;18.38;77.89;100977.16;5075335;27;45362;-69
2021/07/28 04:30:55;;;;;;;;;3.00;3.00;;;;;18.39;77.03;100984.19;5074919;27;45288;-70
2021/07/28 04:33:21;;;;;;;;;3.00;3.00;;;;;18.36;77.53;100984.38;5077006;27;46319;-70
2021/07/28 04:35:46;;;;;;;;;3.25;3.25;;;;;18.36;77.02;100981.72;5075057;27;45345;-69
2021/07/28 04:38:12;;;;;;;;;3.25;3.25;;;;;18.37;77.14;100983.41;5070859;28;45377;-69
2021/07/28 04:40:37;;;;;;;;;2.75;1.50;;;;;18.34;77.23;100983.66;5073961;27;45274;-69
2021/07/28 04:43:02;;;;;;;;;4.50;3.00;;;;;18.33;76.76;100990.78;5074608;27;45278;-69
2021/07/28 04:45:28;;;;;;;;;3.00;3.00;;;;;18.33;76.76;100984.63;5076980;27;45377;-70
2021/07/28 04:47:53;;;;;;;;;2.00;2.00;;;;;18.35;76.68;100986.19;5074046;27;45643;-69
2021/07/28 04:50:18;;;;;;;;;4.50;3.50;;;;;18.36;77.05;100984.38;5074666;27;45379;-69
2021/07/28 04:52:44;;;;;;;;;5.25;3.00;;;;;18.42;77.10;100990.09;5074698;27;45484;-69
2021/07/28 04:55:09;;;;;;;;;4.00;4.00;;;;;18.41;76.69;100990.22;5075548;27;45552;-70
2021/07/28 04:57:35;;;;;;;;;4.00;3.00;;;;;18.32;76.17;100978.41;5075722;27;45243;-70
2021/07/28 05:00:00;;;;;;;;;4.50;3.75;;;;;18.40;76.77;100985.88;5075428;27;45482;-69
2021/07/28 05:02:26;;;;;;;;;2.50;2.50;;;;;18.42;76.90;100992.75;5071607;28;45988;-69
2021/07/28 05:04:52;;;;;;;;;4.50;1.25;;;;;18.43;76.36;100997.16;5074505;27;45236;-69
2021/07/28 05:07:18;;;;;;;;;5.00;3.00;;;;;18.42;75.92;100987.44;5075313;28;45497;-70
2021/07/28 05:09:43;;;;;;;;;5.50;3.00;;;;;18.43;75.68;100991.84;5074608;27;45409;-69
2021/07/28 05:12:09;;;;;;;;;5.50;2.75;;;;;18.45;75.21;100997.88;5075589;28;46582;-69
2021/07/28 05:14:34;;;;;;;;;4.00;3.00;;;;;18.40;75.44;100986.72;5074242;27;45438;-69
2021/07/28 05:16:59;;;;;;;;;3.50;2.75;;;;;18.42;74.84;100989.25;5074413;27;45563;-70
2021/07/28 05:19:25;;;;;;;;;3.50;3.00;;;;;18.40;74.89;100992.03;5073717;27;45484;-69
2021/07/28 05:21:50;;;;;;;;;3.25;2.75;;;;;18.41;75.27;100992.88;5074339;27;46504;-69
2021/07/28 05:24:15;;;;;;;;;3.50;2.00;;;;;18.41;75.29;100998.22;5091989;27;45312;-69
2021/07/28 05:26:41;;;;;;;;;7.00;5.00;;;;;18.44;75.16;101011.31;5073924;27;45342;-69
2021/07/28 05:29:06;;;;;;;;;5.00;3.50;;;;;18.37;75.08;101002.88;5074427;28;45616;-69
2021/07/28 05:31:32;;;;;;;;;4.00;4.00;;;;;18.43;75.76;101004.28;5074176;27;45401;-69
2021/07/28 05:33:57;;;;;;;;;4.25;4.00;;;;;18.46;75.32;101002.22;5074309;28;45473;-70
2021/07/28 05:36:22;;;;;;;;;5.75;3.50;;;;;18.52;75.69;101006.25;5092303;27;45390;-69
2021/07/28 05:38:48;;;;;;;;;3.00;3.00;;;;;18.57;75.92;101004.13;5074135;28;45503;-69
2021/07/28 05:41:13;;;;;;;;;5.75;3.00;;;;;18.60;75.83;101009.25;5072032;27;46371;-69
2021/07/28 05:43:38;;;;;;;;;3.50;3.50;;;;;18.65;75.07;101006.25;5073859;27;45456;-69
2021/07/28 05:46:04;;;;;;;;;1.25;1.25;;;;;18.67;75.64;100999.00;5074235;27;45327;-69
2021/07/28 05:48:31;;;;;;;;;3.75;3.00;;;;;18.77;75.33;101014.22;5076264;28;45440;-69
2021/07/28 05:50:57;;;;;;;;;4.50;3.75;;;;;18.78;75.54;101010.59;5072464;27;46559;-69
2021/07/28 05:53:23;;;;;;;;;3.50;3.50;;;;;18.80;74.96;101001.66;5074014;28;45427;-69
2021/07/28 05:55:48;;;;;;;;;3.25;2.25;;;;;18.88;74.58;101009.91;5073422;28;45251;-69
2021/07/28 05:58:13;;;;;;;;;4.75;2.75;;;;;18.95;74.98;101020.03;5072536;27;45555;-70
2021/07/28 06:00:39;;;;;;;;;2.25;2.25;;;;;19.01;74.47;101029.38;5075143;27;46454;-69
2021/07/28 06:03:04;;;;;;;;;2.75;2.75;;;;;19.01;74.33;101022.22;5074855;28;45573;-69
2021/07/28 06:05:30;;;;;;;;;4.75;2.00;;;;;19.00;75.00;101028.53;5073566;27;45411;-70
2021/07/28 06:07:55;;;;;;;;;4.25;3.00;;;;;18.98;73.97;101027.78;5073754;27;45549;-69
2021/07/28 06:10:21;;;;;;;;;3.75;3.75;;;;;18.97;74.23;101033.22;5073463;28;45474;-70
2021/07/28 06:12:46;;;;;;;;;3.25;3.00;;;;;18.95;74.00;101033.34;5073271;27;45323;-69
2021/07/28 06:15:11;;;;;;;;;3.00;2.00;;;;;18.96;73.73;101042.19;5075529;27;45360;-69
2021/07/28 06:17:37;;;;;;;;;4.75;2.00;;;;;18.95;73.83;101035.13;5073388;28;45541;-69
2021/07/28 06:20:03;;;;;;;;;4.00;2.00;;;;;18.98;73.85;101033.09;5072254;27;46156;-69
2021/07/28 06:22:29;;;;;;;;;3.00;3.00;;;;;18.94;73.65;101031.63;5073307;27;45466;-69
2021/07/28 06:24:54;;;;;;;;;3.50;2.50;;;;;18.87;72.76;101022.38;5072445;27;45500;-69
2021/07/28 06:27:20;;;;;;;;;4.00;2.75;;;;;18.88;72.95;101032.06;5075538;27;45381;-69
2021/07/28 06:29:45;;;;;;;;;5.75;3.25;;;;;18.95;72.96;101036.00;5068666;27;47950;-69
2021/07/28 06:32:11;;;;;;;;;4.00;4.00;;;;;19.00;72.86;101031.19;5073243;28;45262;-69
2021/07/28 06:34:36;;;;;;;;;3.25;2.25;;;;;19.07;72.83;101039.56;5073020;28;45524;-69
2021/07/28 06:37:02;;;;;;;;;3.25;2.25;;;;;19.08;72.57;101029.75;5072559;27;45275;-69
2021/07/28 06:39:27;;;;;;;;;3.50;3.25;;;;;19.08;72.88;101041.28;5074152;27;46339;-69
2021/07/28 06:41:53;;;;;;;;;4.00;3.00;;;;;19.04;72.98;101047.78;5073088;27;45385;-69
2021/07/28 06:44:18;;;;;;;;;4.50;3.50;;;;;19.07;73.20;101042.25;5073104;28;45470;-69
2021/07/28 06:46:43;;;;;;;;;6.00;3.00;;;;;18.98;73.01;101035.75;5072990;28;45389;-70
2021/07/28 06:49:09;;;;;;;;;5.00;2.75;;;;;19.03;72.75;101041.59;5073071;27;45665;-69
2021/07/28 06:51:34;;;;;;;;;4.75;2.75;;;;;19.16;73.13;101049.56;5074676;27;45373;-69
2021/07/28 06:54:00;;;;;;;;;3.00;3.00;;;;;19.35;73.29;101049.03;5073314;27;45511;-70
2021/07/28 06:56:25;;;;;;;;;2.75;2.00;;;;;19.63;72.32;101050.50;5072865;27;45449;-69
2021/07/28 06:58:50;;;;;;;;;4.00;3.00;;;;;19.83;71.51;101034.78;5071583;27;45499;-70
2021/07/28 07:01:16;;;;;;;;;4.00;3.00;;;;;19.94;71.52;101041.00;5073035;28;45440;-69
2021/07/28 07:03:41;;;;;;;;;3.50;3.50;;;;;20.10;71.11;101046.00;5073733;27;45390;-69
2021/07/28 07:06:06;;;;;;;;;5.00;2.00;;;;;20.26;70.92;101056.31;5074395;27;45601;-70
2021/07/28 07:08:32;;;;;;;;;3.50;3.50;;;;;20.33;70.33;101055.72;5068287;28;46364;-69
2021/07/28 07:10:57;;;;;;;;;4.00;3.25;;;;;20.43;70.76;101058.50;5072569;27;45396;-69
2021/07/28 07:13:23;;;;;;;;;3.00;3.00;;;;;20.63;70.49;101050.78;5073063;27;45480;-69
2021/07/28 07:15:49;;;;;;;;;2.75;2.75;;;;;20.94;70.32;101065.16;5073184;27;45532;-69
2021/07/28 07:18:15;;;;;;;;;1.75;0.00;;;;;21.36;69.00;101061.66;5073061;28;45371;-70
2021/07/28 07:20:40;;;;;;;;;3.50;3.50;;;;;21.42;67.71;101065.66;5072532;27;45603;-70
2021/07/28 07:23:06;;;;;;;;;3.50;2.50;;;;;21.22;68.20;101067.28;5072757;28;46285;-70
2021/07/28 07:25:31;;;;;;;;;4.25;3.25;;;;;21.09;68.23;101058.56;5074745;27;45347;-69
2021/07/28 07:27:56;;;;;;;;;3.25;2.75;;;;;21.10;68.35;101057.59;5076151;28;46123;-70
2021/07/28 07:30:22;;;;;;;;;3.50;2.00;;;;;21.15;69.06;101062.56;5077972;27;45444;-70
2021/07/28 07:35:32;;;;;;;;;4.50;4.50;;;;;21.32;67.83;101062.03;5075542;27;45327;-69
2021/07/28 07:37:57;;;;;;;;;3.25;3.00;;;;;21.34;67.90;101063.59;5074413;27;45511;-69
2021/07/28 07:40:23;;;;;;;;;7.25;3.00;;;;;21.46;68.10;101058.22;5074856;27;47274;-69
2021/07/28 07:42:48;;;;;;;;;5.50;3.00;;;;;21.70;66.96;101063.31;5076086;28;45326;-70
2021/07/28 07:45:13;;;;;;;;;3.50;2.75;;;;;21.79;67.72;101062.56;5077920;27;45334;-69
2021/07/28 07:47:38;;;;;;;;;3.25;3.25;;;;;22.19;67.16;101062.69;5075311;27;46460;-70
2021/07/28 07:50:04;;;;;;;;;4.50;3.75;;;;;22.38;65.75;101064.59;5075367;28;45477;-69
2021/07/28 07:52:30;;;;;;;;;3.25;3.25;;;;;22.54;66.07;101062.28;5075979;27;45351;-69
2021/07/28 07:54:55;;;;;;;;;4.00;4.00;;;;;22.78;64.80;101064.63;5075415;27;45366;-70
2021/07/28 07:57:20;;;;;;;;;4.75;4.00;;;;;22.90;63.88;101066.22;5077335;28;46197;-69
2021/07/28 07:59:46;;;;;;;;;4.00;4.00;;;;;22.83;63.66;101073.09;5075420;27;45503;-70
2021/07/28 08:02:11;;;;;;;;;3.50;2.50;;;;;22.97;63.25;101069.22;5074826;28;45388;-70
2021/07/28 08:04:36;;;;;;;;;4.00;4.00;;;;;23.36;63.34;101066.56;5074702;27;45434;-70
2021/07/28 08:07:02;;;;;;;;;4.25;3.00;;;;;23.44;64.12;101066.72;5075042;27;46646;-70
2021/07/28 08:09:27;;;;;;;;;6.00;5.00;;;;;23.52;63.72;101060.66;5077382;27;45509;-70
2021/07/28 08:11:54;;;;;;;;;6.00;3.75;;;;;23.35;63.89;101060.38;5070498;28;45501;-69
2021/07/28 08:14:19;;;;;;;;;3.00;3.00;;;;;23.57;64.46;101053.88;5075161;27;45484;-69
2021/07/28 08:16:45;;;;;;;;;5.50;4.00;;;;;24.67;61.76;101058.69;5072822;28;45424;-70
2021/07/28 08:19:10;;;;;;;;;6.75;5.25;;;;;25.48;59.58;101056.91;5075337;27;45244;-70
2021/07/28 08:21:35;;;;;;;;;5.00;3.25;;;;;25.69;59.65;101055.72;5077013;27;45291;-69
2021/07/28 08:24:01;;;;;;;;;4.00;2.00;;;;;25.98;58.86;101061.69;5076044;27;45466;-70
2021/07/28 08:26:26;;;;;;;;;6.00;4.00;;;;;26.24;59.53;101055.44;5073434;28;47380;-70
2021/07/28 08:28:52;;;;;;;;;6.00;3.75;;;;;26.05;58.86;101052.97;5075115;27;45468;-70
2021/07/28 08:31:17;;;;;;;;;3.75;2.75;;;;;25.75;57.01;101061.34;5075379;28;45623;-70
2021/07/28 08:33:43;;;;;;;;;5.50;4.50;;;;;25.72;58.49;101060.78;5076143;27;45289;-70
2021/07/28 08:36:08;;;;;;;;;3.00;3.00;;;;;25.87;55.12;101061.94;5074495;27;45595;-70
2021/07/28 08:38:34;;;;;;;;;1.00;1.00;;;;;26.83;53.55;101058.25;5070401;28;45398;-70
2021/07/28 08:41:01;;;;;;;;;6.75;3.00;;;;;28.16;49.75;101066.13;5075017;27;45306;-70
2021/07/28 08:43:29;;;;;;;;;1.25;1.25;;;;;28.36;51.85;101058.53;5074297;27;45465;-70
2021/07/28 08:45:58;;;;;;;;;3.00;2.00;;;;;29.02;51.75;101057.19;5075336;27;45656;-70
2021/07/28 08:48:24;;;;;;;;;2.00;1.25;;;;;28.70;52.18;101050.09;5076240;27;45381;-70
2021/07/28 08:50:53;;;;;;;;;6.00;3.00;;;;;28.37;51.23;101052.09;5070418;27;45390;-70
2021/07/28 08:53:18;;;;;;;;;4.00;2.00;;;;;28.18;50.31;101058.69;5075228;28;45310;-70
2021/07/28 08:55:45;;;;;;;;;2.75;2.25;;;;;27.49;50.12;101057.38;5072991;27;45569;-70
2021/07/28 08:58:15;;;;;;;;;2.00;2.00;;;;;26.77;51.70;101059.75;5074935;27;45295;-70
2021/07/28 09:00:47;;;;;;;;;3.50;2.25;;;;;26.29;52.68;101062.03;5075385;27;45347;-70
2021/07/28 09:03:13;;;;;;;;;3.25;2.00;;;;;26.04;52.33;101068.28;5073359;28;45448;-70
2021/07/28 09:05:40;;;;;;;;;4.00;2.00;;;;;25.72;53.41;101068.84;5074359;27;45381;-70
2021/07/28 09:08:20;;;;;;;;;4.50;3.00;;;;;25.40;53.58;101074.81;5074932;27;45424;-70
2021/07/28 09:11:08;;;;;;;;;3.25;3.25;;;;;25.07;53.13;101074.50;5074903;27;45517;-70
2021/07/28 09:13:37;;;;;;;;;3.50;3.00;;;;;24.62;53.77;101074.41;5073352;27;45600;-70
2021/07/28 09:16:09;;;;;;;;;4.00;3.00;;;;;24.33;55.18;101074.53;5074501;27;46715;-70
2021/07/28 09:18:41;;;;;;;;;3.00;3.00;;;;;24.13;55.21;101079.94;5075350;27;45560;-70
2021/07/28 09:21:25;;;;;;;;;4.25;3.25;;;;;23.89;56.19;101071.50;5075736;28;45339;-70
2021/07/28 09:23:54;;;;;;;;;3.50;2.50;;;;;23.74;55.99;101070.25;5074796;27;45656;-70
2021/07/28 09:26:30;;;;;;;;;4.75;4.75;;;;;23.60;56.62;101093.00;5073977;28;45571;-70
2021/07/28 09:29:09;;;;;;;;;4.00;3.00;;;;;23.41;56.05;101083.09;5074350;28;45386;-70
2021/07/28 09:31:40;;;;;;;;;2.00;2.00;;;;;23.21;56.21;101097.47;5069900;27;45461;-70
2021/07/28 09:34:07;;;;;;;;;3.50;2.25;;;;;23.05;56.61;101081.91;5072184;28;45372;-70
2021/07/28 09:36:35;;;;;;;;;2.25;2.00;;;;;22.96;56.68;101077.38;5074449;28;47408;-70
2021/07/28 09:39:01;;;;;;;;;7.00;3.00;;;;;22.84;57.42;101077.47;5073414;27;45895;-70
2021/07/28 09:41:26;;;;;;;;;4.50;4.00;;;;;22.87;58.00;101071.84;5074244;28;47399;-69
2021/07/28 09:43:59;;;;;;;;;2.00;2.00;;;;;22.99;58.15;101069.06;5074131;27;45454;-70
2021/07/28 09:46:25;;;;;;;;;5.00;3.75;;;;;23.10;58.13;101077.00;5073165;27;45479;-70
2021/07/28 09:48:50;;;;;;;;;6.00;3.00;;;;;23.25;58.60;101075.59;5073459;27;45505;-70
2021/07/28 09:51:34;;;;;;;;;2.00;2.00;;;;;23.38;58.91;101076.16;5075964;27;45252;-70
2021/07/28 09:54:02;;;;;;;;;4.25;4.00;;;;;23.61;58.29;101071.38;5074693;27;45374;-70
2021/07/28 09:56:30;;;;;;;;;3.25;3.25;;;;;23.85;58.69;101073.63;5074074;27;46314;-69
2021/07/28 09:58:58;;;;;;;;;4.25;3.75;;;;;24.17;57.68;101078.66;5073709;27;45757;-70
2021/07/28 10:01:25;;;;;;;;;4.25;3.25;;;;;24.41;57.23;101086.25;5072895;27;45393;-70
2021/07/28 10:03:51;;;;;;;;;4.75;4.75;;;;;24.56;56.39;101081.25;5074022;27;45339;-69
2021/07/28 10:06:20;;;;;;;;;6.00;5.00;;;;;24.74;56.43;101092.03;5075563;27;46287;-70
2021/07/28 10:08:46;;;;;;;;;2.00;2.00;;;;;24.96;56.48;101078.22;5073610;28;45353;-70
2021/07/28 10:11:13;;;;;;;;;4.25;3.25;;;;;25.28;55.45;101082.28;5074089;27;45409;-70
2021/07/28 10:13:41;;;;;;;;;3.50;3.50;;;;;25.84;54.69;101070.34;5071969;27;45430;-70
2021/07/28 10:16:07;;;;;;;;;2.00;2.00;;;;;26.53;53.24;101077.53;5073265;27;45463;-70
2021/07/28 10:18:33;;;;;;;;;2.00;2.00;;;;;27.04;51.57;101075.69;5075597;27;45336;-70
2021/07/28 10:20:58;;;;;;;;;2.00;2.00;;;;;27.39;51.21;101070.22;5090382;27;45519;-70
2021/07/28 10:23:25;;;;;;;;;5.50;3.25;;;;;27.80;49.93;101061.13;5073713;27;45433;-70
2021/07/28 10:25:51;;;;;;;;;4.25;3.25;;;;;28.26;49.61;101068.66;5068732;28;47743;-70
2021/07/28 10:28:17;;;;;;;;;2.75;2.00;;;;;28.38;48.18;101061.03;5073262;27;45475;-70
2021/07/28 10:30:45;;;;;;;;;1.25;1.25;;;;;28.04;48.04;101067.53;5073826;27;45488;-70
2021/07/28 10:33:25;;;;;;;;;1.00;1.00;;;;;27.45;49.21;101066.84;5073165;28;45498;-70
2021/07/28 10:35:50;;;;;;;;;2.25;2.25;;;;;27.06;48.96;101067.44;5073163;27;46097;-70
2021/07/28 10:38:20;;;;;;;;;4.50;2.00;;;;;27.10;49.17;101079.63;5073043;28;45406;-70
2021/07/28 10:40:59;;;;;;;;;1.50;1.50;;;;;27.24;50.71;101072.72;5073529;27;46060;-70
2021/07/28 10:43:25;;;;;;;;;3.25;2.25;;;;;27.55;49.58;101075.63;5073321;27;45339;-70
2021/07/28 10:46:00;;;;;;;;;1.00;1.00;;;;;27.72;47.61;101071.94;5072934;27;45500;-70
2021/07/28 10:48:43;;;;;;;;;3.00;3.00;;;;;27.81;49.67;101061.97;5074750;27;45641;-70
2021/07/28 10:51:09;;;;;;;;;2.00;1.75;;;;;27.95;48.38;101063.16;5090524;27;45655;-70
2021/07/28 10:53:48;;;;;;;;;2.25;1.50;;;;;28.16;47.11;101059.91;5072982;28;45288;-71
2021/07/28 10:56:13;;;;;;;;;1.00;1.00;;;;;28.34;48.31;101058.66;5072823;27;45505;-70
2021/07/28 10:58:39;;;;;;;;;4.00;2.00;;;;;28.57;48.10;101060.63;5068017;28;45457;-70
2021/07/28 11:01:04;;;;;;;;;1.00;1.00;;;;;28.89;46.46;101059.63;5075811;28;45987;-70
2021/07/28 11:03:31;;;;;;;;;2.00;2.00;;;;;28.94;43.15;101061.84;5077986;27;45388;-71
2021/07/28 11:06:15;;;;;;;;;3.00;1.75;;;;;28.73;47.17;101068.69;5093592;27;47549;-71
2021/07/28 11:08:41;;;;;;;;;2.50;2.00;;;;;28.78;46.07;101066.28;5076744;27;49078;-70
2021/07/28 11:11:07;;;;;;;;;3.00;1.00;;;;;28.77;46.27;101069.19;5075099;27;45256;-71
2021/07/28 11:13:33;;;;;;;;;2.00;2.00;;;;;28.69;45.99;101075.44;5076102;27;45588;-70
2021/07/28 11:16:02;;;;;;;;;1.00;1.00;;;;;28.75;45.45;101076.59;5059568;28;46702;-71
2021/07/28 11:18:48;;;;;;;;;1.00;1.00;;;;;28.85;45.42;101067.25;5074077;27;45444;-71
2021/07/28 11:21:26;;;;;;;;;3.75;2.00;;;;;29.01;46.58;101076.34;5092400;27;45306;-71
2021/07/28 11:24:00;;;;;;;;;1.00;1.00;;;;;29.03;43.79;101063.47;5076236;27;45341;-70
2021/07/28 11:26:31;;;;;;;;;2.50;2.25;;;;;29.07;45.71;101071.03;5075982;27;46179;-70
2021/07/28 11:29:05;;;;;;;;;2.00;1.00;;;;;29.21;44.13;101074.84;5075590;27;45421;-70
2021/07/28 11:31:39;;;;;;;;;1.25;1.25;;;;;29.24;45.22;101071.81;5074447;27;45491;-71
2021/07/28 11:34:13;;;;;;;;;1.00;1.00;;;;;29.14;45.57;101065.78;5060763;28;45437;-70